sensor_id;sensor_type;location;lat;lon;timestamp;P1;durP1;ratioP1;P2;durP2;ratioP2
21769;SDS011;11046;49.558;8.674;2023-02-28T00:02:48;6.93;;;3.00;;
21769;SDS011;11046;49.558;8.674;2023-02-28T00:05:51;4.90;;;2.50;;
21769;SDS011;11046;49.558;8.674;2023-02-28T00:08:54;4.60;;;2.77;;
21769;SDS011;11046;49.558;8.674;2023-02-28T00:11:57;4.97;;;2.70;;
21769;SDS011;11046;49.558;8.674;2023-02-28T00:15:20;3.53;;;2.77;;
21769;SDS011;11046;49.558;8.674;2023-02-28T00:18:22;4.60;;;2.80;;
21769;SDS011;11046;49.558;8.674;2023-02-28T00:21:29;4.40;;;2.93;;
21769;SDS011;11046;49.558;8.674;2023-02-28T00:24:30;5.87;;;3.10;;
21769;SDS011;11046;49.558;8.674;2023-02-28T00:27:30;4.83;;;3.03;;
21769;SDS011;11046;49.558;8.674;2023-02-28T00:30:31;4.57;;;2.70;;
21769;SDS011;11046;49.558;8.674;2023-02-28T00:33:38;5.77;;;3.17;;
21769;SDS011;11046;49.558;8.674;2023-02-28T00:36:48;5.60;;;3.10;;
21769;SDS011;11046;49.558;8.674;2023-02-28T00:39:52;5.73;;;2.83;;
21769;SDS011;11046;49.558;8.674;2023-02-28T00:42:53;5.90;;;3.10;;
21769;SDS011;11046;49.558;8.674;2023-02-28T00:45:54;6.23;;;3.40;;
21769;SDS011;11046;49.558;8.674;2023-02-28T00:48:54;6.97;;;3.00;;
21769;SDS011;11046;49.558;8.674;2023-02-28T00:52:01;6.87;;;3.27;;
21769;SDS011;11046;49.558;8.674;2023-02-28T00:55:02;5.37;;;2.70;;
21769;SDS011;11046;49.558;8.674;2023-02-28T00:58:08;5.77;;;3.33;;
21769;SDS011;11046;49.558;8.674;2023-02-28T01:01:09;6.23;;;3.20;;
21769;SDS011;11046;49.558;8.674;2023-02-28T01:04:12;4.57;;;3.10;;
21769;SDS011;11046;49.558;8.674;2023-02-28T01:07:18;4.70;;;3.23;;
21769;SDS011;11046;49.558;8.674;2023-02-28T01:10:30;7.23;;;3.73;;
21769;SDS011;11046;49.558;8.674;2023-02-28T01:13:31;6.30;;;3.80;;
21769;SDS011;11046;49.558;8.674;2023-02-28T01:16:32;7.33;;;3.40;;
21769;SDS011;11046;49.558;8.674;2023-02-28T01:19:33;8.20;;;3.60;;
21769;SDS011;11046;49.558;8.674;2023-02-28T01:22:36;7.10;;;3.60;;
21769;SDS011;11046;49.558;8.674;2023-02-28T01:25:37;8.13;;;4.20;;
21769;SDS011;11046;49.558;8.674;2023-02-28T01:28:40;7.80;;;4.23;;
21769;SDS011;11046;49.558;8.674;2023-02-28T01:31:44;7.17;;;4.40;;
21769;SDS011;11046;49.558;8.674;2023-02-28T01:34:45;6.87;;;4.13;;
21769;SDS011;11046;49.558;8.674;2023-02-28T01:37:46;8.63;;;4.70;;
21769;SDS011;11046;49.558;8.674;2023-02-28T01:40:47;6.43;;;4.10;;
21769;SDS011;11046;49.558;8.674;2023-02-28T01:46:58;7.37;;;4.30;;
21769;SDS011;11046;49.558;8.674;2023-02-28T01:50:02;7.07;;;4.20;;
21769;SDS011;11046;49.558;8.674;2023-02-28T01:53:10;7.60;;;4.33;;
21769;SDS011;11046;49.558;8.674;2023-02-28T01:56:23;8.00;;;4.70;;
21769;SDS011;11046;49.558;8.674;2023-02-28T01:59:35;7.47;;;4.50;;
21769;SDS011;11046;49.558;8.674;2023-02-28T02:02:46;7.00;;;4.40;;
21769;SDS011;11046;49.558;8.674;2023-02-28T02:05:53;7.73;;;4.07;;
21769;SDS011;11046;49.558;8.674;2023-02-28T02:08:57;7.87;;;4.60;;
21769;SDS011;11046;49.558;8.674;2023-02-28T02:11:58;9.40;;;4.77;;
21769;SDS011;11046;49.558;8.674;2023-02-28T02:15:24;8.17;;;4.63;;
21769;SDS011;11046;49.558;8.674;2023-02-28T02:18:41;7.90;;;4.40;;
21769;SDS011;11046;49.558;8.674;2023-02-28T02:25:34;7.37;;;4.70;;
21769;SDS011;11046;49.558;8.674;2023-02-28T02:29:23;10.20;;;4.50;;
21769;SDS011;11046;49.558;8.674;2023-02-28T02:39:52;8.90;;;5.03;;
21769;SDS011;11046;49.558;8.674;2023-02-28T02:43:02;7.57;;;4.67;;
21769;SDS011;11046;49.558;8.674;2023-02-28T02:46:30;10.40;;;4.53;;
21769;SDS011;11046;49.558;8.674;2023-02-28T02:49:32;9.03;;;5.07;;
21769;SDS011;11046;49.558;8.674;2023-02-28T02:52:40;8.23;;;4.50;;
21769;SDS011;11046;49.558;8.674;2023-02-28T02:55:47;9.03;;;5.30;;
21769;SDS011;11046;49.558;8.674;2023-02-28T02:58:55;7.43;;;4.70;;
21769;SDS011;11046;49.558;8.674;2023-02-28T03:02:06;8.47;;;4.93;;
21769;SDS011;11046;49.558;8.674;2023-02-28T03:05:19;8.50;;;4.77;;
21769;SDS011;11046;49.558;8.674;2023-02-28T03:08:40;9.07;;;4.60;;
21769;SDS011;11046;49.558;8.674;2023-02-28T03:11:44;8.73;;;4.80;;
21769;SDS011;11046;49.558;8.674;2023-02-28T03:21:16;8.60;;;5.07;;
21769;SDS011;11046;49.558;8.674;2023-02-28T03:31:10;10.23;;;4.93;;
21769;SDS011;11046;49.558;8.674;2023-02-28T03:37:35;8.97;;;5.13;;
21769;SDS011;11046;49.558;8.674;2023-02-28T03:40:43;11.30;;;5.67;;
21769;SDS011;11046;49.558;8.674;2023-02-28T03:43:58;11.00;;;5.37;;
21769;SDS011;11046;49.558;8.674;2023-02-28T03:50:14;10.93;;;5.33;;
21769;SDS011;11046;49.558;8.674;2023-02-28T03:53:27;10.30;;;5.60;;
21769;SDS011;11046;49.558;8.674;2023-02-28T03:56:49;8.50;;;5.20;;
21769;SDS011;11046;49.558;8.674;2023-02-28T03:59:59;10.97;;;5.30;;
21769;SDS011;11046;49.558;8.674;2023-02-28T04:03:14;12.23;;;5.47;;
21769;SDS011;11046;49.558;8.674;2023-02-28T04:06:23;10.33;;;5.43;;
21769;SDS011;11046;49.558;8.674;2023-02-28T04:09:24;9.93;;;5.60;;
21769;SDS011;11046;49.558;8.674;2023-02-28T04:12:37;10.53;;;5.50;;
21769;SDS011;11046;49.558;8.674;2023-02-28T04:15:40;9.87;;;5.20;;
21769;SDS011;11046;49.558;8.674;2023-02-28T04:18:41;9.83;;;5.23;;
21769;SDS011;11046;49.558;8.674;2023-02-28T04:21:49;10.23;;;5.50;;
21769;SDS011;11046;49.558;8.674;2023-02-28T04:24:55;10.00;;;5.50;;
21769;SDS011;11046;49.558;8.674;2023-02-28T04:27:56;8.90;;;5.17;;
21769;SDS011;11046;49.558;8.674;2023-02-28T04:31:01;9.20;;;5.50;;
21769;SDS011;11046;49.558;8.674;2023-02-28T04:34:04;10.93;;;5.57;;
21769;SDS011;11046;49.558;8.674;2023-02-28T04:37:05;8.60;;;4.97;;
21769;SDS011;11046;49.558;8.674;2023-02-28T04:40:06;10.33;;;5.40;;
21769;SDS011;11046;49.558;8.674;2023-02-28T04:43:10;11.50;;;5.30;;
21769;SDS011;11046;49.558;8.674;2023-02-28T04:46:11;10.13;;;5.27;;
21769;SDS011;11046;49.558;8.674;2023-02-28T04:49:15;8.53;;;5.17;;
21769;SDS011;11046;49.558;8.674;2023-02-28T04:52:16;9.27;;;5.27;;
21769;SDS011;11046;49.558;8.674;2023-02-28T04:55:16;9.57;;;5.40;;
21769;SDS011;11046;49.558;8.674;2023-02-28T04:58:23;9.37;;;5.47;;
21769;SDS011;11046;49.558;8.674;2023-02-28T05:01:26;9.57;;;5.57;;
21769;SDS011;11046;49.558;8.674;2023-02-28T05:04:40;10.87;;;5.67;;
21769;SDS011;11046;49.558;8.674;2023-02-28T05:07:40;11.77;;;5.30;;
21769;SDS011;11046;49.558;8.674;2023-02-28T05:10:44;10.27;;;4.73;;
21769;SDS011;11046;49.558;8.674;2023-02-28T05:13:47;11.33;;;5.77;;
21769;SDS011;11046;49.558;8.674;2023-02-28T05:16:48;11.97;;;6.10;;
21769;SDS011;11046;49.558;8.674;2023-02-28T05:20:02;10.47;;;5.53;;
21769;SDS011;11046;49.558;8.674;2023-02-28T05:23:08;9.20;;;5.20;;
21769;SDS011;11046;49.558;8.674;2023-02-28T05:26:13;14.03;;;5.70;;
21769;SDS011;11046;49.558;8.674;2023-02-28T05:29:14;9.50;;;5.53;;
21769;SDS011;11046;49.558;8.674;2023-02-28T05:32:14;12.93;;;5.70;;
21769;SDS011;11046;49.558;8.674;2023-02-28T05:35:18;13.43;;;5.60;;
21769;SDS011;11046;49.558;8.674;2023-02-28T05:38:21;10.80;;;5.87;;
21769;SDS011;11046;49.558;8.674;2023-02-28T05:41:30;10.97;;;5.43;;
21769;SDS011;11046;49.558;8.674;2023-02-28T05:44:35;10.87;;;5.07;;
21769;SDS011;11046;49.558;8.674;2023-02-28T05:47:36;10.87;;;5.87;;
21769;SDS011;11046;49.558;8.674;2023-02-28T05:50:37;12.60;;;6.20;;
21769;SDS011;11046;49.558;8.674;2023-02-28T05:53:38;13.07;;;6.30;;
21769;SDS011;11046;49.558;8.674;2023-02-28T05:56:50;10.57;;;5.50;;
21769;SDS011;11046;49.558;8.674;2023-02-28T05:59:54;13.13;;;6.23;;
21769;SDS011;11046;49.558;8.674;2023-02-28T06:03:00;11.13;;;6.70;;
21769;SDS011;11046;49.558;8.674;2023-02-28T06:06:04;10.80;;;5.97;;
21769;SDS011;11046;49.558;8.674;2023-02-28T06:09:07;13.17;;;6.03;;
21769;SDS011;11046;49.558;8.674;2023-02-28T06:12:12;10.87;;;6.10;;
21769;SDS011;11046;49.558;8.674;2023-02-28T06:15:18;11.03;;;5.40;;
21769;SDS011;11046;49.558;8.674;2023-02-28T06:18:21;12.90;;;6.87;;
21769;SDS011;11046;49.558;8.674;2023-02-28T06:21:27;11.43;;;6.03;;
21769;SDS011;11046;49.558;8.674;2023-02-28T06:24:33;9.50;;;5.43;;
21769;SDS011;11046;49.558;8.674;2023-02-28T06:27:36;11.70;;;6.10;;
21769;SDS011;11046;49.558;8.674;2023-02-28T06:30:38;13.67;;;6.80;;
21769;SDS011;11046;49.558;8.674;2023-02-28T06:33:42;13.83;;;6.50;;
21769;SDS011;11046;49.558;8.674;2023-02-28T06:36:47;10.63;;;6.03;;
21769;SDS011;11046;49.558;8.674;2023-02-28T06:39:54;10.43;;;6.03;;
21769;SDS011;11046;49.558;8.674;2023-02-28T06:42:55;10.23;;;5.83;;
21769;SDS011;11046;49.558;8.674;2023-02-28T06:46:08;10.10;;;6.00;;
21769;SDS011;11046;49.558;8.674;2023-02-28T06:49:13;9.97;;;5.93;;
21769;SDS011;11046;49.558;8.674;2023-02-28T06:52:16;10.53;;;6.10;;
21769;SDS011;11046;49.558;8.674;2023-02-28T06:55:17;13.10;;;6.83;;
21769;SDS011;11046;49.558;8.674;2023-02-28T06:58:18;11.77;;;6.27;;
21769;SDS011;11046;49.558;8.674;2023-02-28T07:01:27;11.47;;;6.57;;
21769;SDS011;11046;49.558;8.674;2023-02-28T07:04:34;12.83;;;7.20;;
21769;SDS011;11046;49.558;8.674;2023-02-28T07:07:47;12.37;;;6.30;;
21769;SDS011;11046;49.558;8.674;2023-02-28T07:10:53;11.10;;;6.10;;
21769;SDS011;11046;49.558;8.674;2023-02-28T07:13:57;13.37;;;6.60;;
21769;SDS011;11046;49.558;8.674;2023-02-28T07:17:01;12.77;;;6.50;;
21769;SDS011;11046;49.558;8.674;2023-02-28T07:20:02;11.67;;;6.37;;
21769;SDS011;11046;49.558;8.674;2023-02-28T07:23:10;11.93;;;6.57;;
21769;SDS011;11046;49.558;8.674;2023-02-28T07:26:14;11.20;;;6.17;;
21769;SDS011;11046;49.558;8.674;2023-02-28T07:29:17;13.57;;;6.90;;
21769;SDS011;11046;49.558;8.674;2023-02-28T07:32:18;11.53;;;6.73;;
21769;SDS011;11046;49.558;8.674;2023-02-28T07:35:22;14.53;;;7.37;;
21769;SDS011;11046;49.558;8.674;2023-02-28T07:38:25;12.53;;;7.27;;
21769;SDS011;11046;49.558;8.674;2023-02-28T07:41:25;13.57;;;7.23;;
21769;SDS011;11046;49.558;8.674;2023-02-28T07:44:43;10.20;;;6.17;;
21769;SDS011;11046;49.558;8.674;2023-02-28T07:47:51;12.77;;;6.50;;
21769;SDS011;11046;49.558;8.674;2023-02-28T07:50:56;15.40;;;7.20;;
21769;SDS011;11046;49.558;8.674;2023-02-28T07:53:58;12.33;;;6.80;;
21769;SDS011;11046;49.558;8.674;2023-02-28T07:57:03;15.43;;;7.57;;
21769;SDS011;11046;49.558;8.674;2023-02-28T08:00:15;13.33;;;7.40;;
21769;SDS011;11046;49.558;8.674;2023-02-28T08:03:16;11.33;;;6.70;;
21769;SDS011;11046;49.558;8.674;2023-02-28T08:06:21;12.60;;;6.90;;
21769;SDS011;11046;49.558;8.674;2023-02-28T08:09:23;14.33;;;6.70;;
21769;SDS011;11046;49.558;8.674;2023-02-28T08:12:29;12.63;;;6.90;;
21769;SDS011;11046;49.558;8.674;2023-02-28T08:15:33;13.23;;;6.47;;
21769;SDS011;11046;49.558;8.674;2023-02-28T08:18:33;10.60;;;6.33;;
21769;SDS011;11046;49.558;8.674;2023-02-28T08:21:37;10.80;;;6.40;;
21769;SDS011;11046;49.558;8.674;2023-02-28T08:24:45;13.93;;;7.27;;
21769;SDS011;11046;49.558;8.674;2023-02-28T08:27:46;11.03;;;6.23;;
21769;SDS011;11046;49.558;8.674;2023-02-28T08:30:49;10.87;;;6.00;;
21769;SDS011;11046;49.558;8.674;2023-02-28T08:33:52;12.40;;;7.40;;
21769;SDS011;11046;49.558;8.674;2023-02-28T08:36:55;11.87;;;6.90;;
21769;SDS011;11046;49.558;8.674;2023-02-28T08:39:56;11.50;;;6.77;;
21769;SDS011;11046;49.558;8.674;2023-02-28T08:42:57;14.67;;;7.47;;
21769;SDS011;11046;49.558;8.674;2023-02-28T08:46:01;10.73;;;6.53;;
21769;SDS011;11046;49.558;8.674;2023-02-28T08:49:03;12.03;;;6.37;;
21769;SDS011;11046;49.558;8.674;2023-02-28T08:52:04;12.73;;;6.63;;
21769;SDS011;11046;49.558;8.674;2023-02-28T08:55:04;11.27;;;6.63;;
21769;SDS011;11046;49.558;8.674;2023-02-28T08:58:06;13.47;;;7.70;;
21769;SDS011;11046;49.558;8.674;2023-02-28T09:01:10;13.33;;;6.90;;
21769;SDS011;11046;49.558;8.674;2023-02-28T09:04:24;13.27;;;6.90;;
21769;SDS011;11046;49.558;8.674;2023-02-28T09:07:30;11.53;;;7.03;;
21769;SDS011;11046;49.558;8.674;2023-02-28T09:10:33;16.70;;;8.13;;
21769;SDS011;11046;49.558;8.674;2023-02-28T09:13:37;12.13;;;7.40;;
21769;SDS011;11046;49.558;8.674;2023-02-28T09:16:38;10.87;;;7.40;;
21769;SDS011;11046;49.558;8.674;2023-02-28T09:19:44;12.30;;;7.40;;
21769;SDS011;11046;49.558;8.674;2023-02-28T09:22:45;17.77;;;8.40;;
21769;SDS011;11046;49.558;8.674;2023-02-28T09:25:52;14.83;;;7.80;;
21769;SDS011;11046;49.558;8.674;2023-02-28T09:28:54;12.40;;;7.97;;
21769;SDS011;11046;49.558;8.674;2023-02-28T09:31:54;12.27;;;7.37;;
21769;SDS011;11046;49.558;8.674;2023-02-28T09:34:58;14.27;;;7.03;;
21769;SDS011;11046;49.558;8.674;2023-02-28T09:37:59;14.00;;;7.27;;
21769;SDS011;11046;49.558;8.674;2023-02-28T09:41:03;12.17;;;6.87;;
21769;SDS011;11046;49.558;8.674;2023-02-28T09:44:12;14.27;;;7.20;;
21769;SDS011;11046;49.558;8.674;2023-02-28T09:47:30;13.30;;;7.50;;
21769;SDS011;11046;49.558;8.674;2023-02-28T09:50:38;12.10;;;7.63;;
21769;SDS011;11046;49.558;8.674;2023-02-28T09:53:41;12.27;;;6.90;;
21769;SDS011;11046;49.558;8.674;2023-02-28T09:56:42;12.27;;;7.30;;
21769;SDS011;11046;49.558;8.674;2023-02-28T09:59:49;12.37;;;7.33;;
21769;SDS011;11046;49.558;8.674;2023-02-28T10:06:24;11.93;;;7.40;;
21769;SDS011;11046;49.558;8.674;2023-02-28T10:09:30;12.03;;;7.70;;
21769;SDS011;11046;49.558;8.674;2023-02-28T10:12:33;14.20;;;8.07;;
21769;SDS011;11046;49.558;8.674;2023-02-28T10:15:38;13.97;;;7.83;;
21769;SDS011;11046;49.558;8.674;2023-02-28T10:18:43;12.70;;;7.63;;
21769;SDS011;11046;49.558;8.674;2023-02-28T10:21:57;12.00;;;7.60;;
21769;SDS011;11046;49.558;8.674;2023-02-28T10:25:11;10.93;;;7.47;;
21769;SDS011;11046;49.558;8.674;2023-02-28T10:28:18;14.60;;;7.73;;
21769;SDS011;11046;49.558;8.674;2023-02-28T10:31:19;14.23;;;7.77;;
21769;SDS011;11046;49.558;8.674;2023-02-28T10:34:20;11.67;;;7.23;;
21769;SDS011;11046;49.558;8.674;2023-02-28T10:37:21;12.93;;;7.97;;
21769;SDS011;11046;49.558;8.674;2023-02-28T10:43:22;11.07;;;7.23;;
21769;SDS011;11046;49.558;8.674;2023-02-28T10:46:24;15.67;;;8.03;;
21769;SDS011;11046;49.558;8.674;2023-02-28T10:49:28;17.53;;;7.90;;
21769;SDS011;11046;49.558;8.674;2023-02-28T10:52:36;15.37;;;7.90;;
21769;SDS011;11046;49.558;8.674;2023-02-28T10:55:39;12.93;;;7.47;;
21769;SDS011;11046;49.558;8.674;2023-02-28T10:58:53;13.77;;;8.07;;
21769;SDS011;11046;49.558;8.674;2023-02-28T11:01:54;12.80;;;7.77;;
21769;SDS011;11046;49.558;8.674;2023-02-28T11:04:55;12.50;;;8.03;;
21769;SDS011;11046;49.558;8.674;2023-02-28T11:07:57;16.57;;;8.13;;
21769;SDS011;11046;49.558;8.674;2023-02-28T11:11:06;14.27;;;8.03;;
21769;SDS011;11046;49.558;8.674;2023-02-28T11:14:14;13.33;;;7.60;;
21769;SDS011;11046;49.558;8.674;2023-02-28T11:17:24;14.27;;;8.00;;
21769;SDS011;11046;49.558;8.674;2023-02-28T11:20:29;15.43;;;8.70;;
21769;SDS011;11046;49.558;8.674;2023-02-28T11:23:33;12.70;;;8.00;;
21769;SDS011;11046;49.558;8.674;2023-02-28T11:26:37;16.97;;;8.37;;
21769;SDS011;11046;49.558;8.674;2023-02-28T11:29:46;14.63;;;8.53;;
21769;SDS011;11046;49.558;8.674;2023-02-28T11:32:48;13.87;;;8.23;;
21769;SDS011;11046;49.558;8.674;2023-02-28T11:35:50;14.20;;;8.10;;
21769;SDS011;11046;49.558;8.674;2023-02-28T11:38:53;11.93;;;7.70;;
21769;SDS011;11046;49.558;8.674;2023-02-28T11:42:05;11.67;;;7.50;;
21769;SDS011;11046;49.558;8.674;2023-02-28T11:55:54;12.70;;;7.73;;
21769;SDS011;11046;49.558;8.674;2023-02-28T11:59:21;13.70;;;7.93;;
21769;SDS011;11046;49.558;8.674;2023-02-28T12:03:18;12.47;;;8.17;;
21769;SDS011;11046;49.558;8.674;2023-02-28T12:09:51;15.10;;;8.33;;
21769;SDS011;11046;49.558;8.674;2023-02-28T12:16:19;15.63;;;9.10;;
21769;SDS011;11046;49.558;8.674;2023-02-28T12:19:41;14.00;;;8.70;;
21769;SDS011;11046;49.558;8.674;2023-02-28T12:26:13;14.83;;;8.90;;
21769;SDS011;11046;49.558;8.674;2023-02-28T12:29:28;14.73;;;8.53;;
21769;SDS011;11046;49.558;8.674;2023-02-28T12:35:55;17.80;;;9.77;;
21769;SDS011;11046;49.558;8.674;2023-02-28T12:39:44;14.23;;;8.33;;
21769;SDS011;11046;49.558;8.674;2023-02-28T12:42:42;14.37;;;8.60;;
21769;SDS011;11046;49.558;8.674;2023-02-28T12:45:52;16.13;;;9.13;;
21769;SDS011;11046;49.558;8.674;2023-02-28T12:48:56;14.27;;;8.83;;
21769;SDS011;11046;49.558;8.674;2023-02-28T12:52:00;16.33;;;9.57;;
21769;SDS011;11046;49.558;8.674;2023-02-28T12:58:29;13.63;;;9.17;;
21769;SDS011;11046;49.558;8.674;2023-02-28T13:02:02;17.93;;;9.23;;
21769;SDS011;11046;49.558;8.674;2023-02-28T13:05:46;14.10;;;8.40;;
21769;SDS011;11046;49.558;8.674;2023-02-28T13:09:03;15.97;;;8.70;;
21769;SDS011;11046;49.558;8.674;2023-02-28T13:12:13;14.17;;;7.97;;
21769;SDS011;11046;49.558;8.674;2023-02-28T13:15:22;15.20;;;8.80;;
21769;SDS011;11046;49.558;8.674;2023-02-28T13:18:33;14.50;;;9.20;;
21769;SDS011;11046;49.558;8.674;2023-02-28T13:21:41;15.83;;;9.53;;
21769;SDS011;11046;49.558;8.674;2023-02-28T13:24:46;15.40;;;9.70;;
21769;SDS011;11046;49.558;8.674;2023-02-28T13:27:49;16.00;;;9.07;;
21769;SDS011;11046;49.558;8.674;2023-02-28T13:34:06;15.43;;;9.80;;
21769;SDS011;11046;49.558;8.674;2023-02-28T13:40:31;16.30;;;9.93;;
21769;SDS011;11046;49.558;8.674;2023-02-28T13:43:58;16.90;;;9.43;;
21769;SDS011;11046;49.558;8.674;2023-02-28T13:53:41;16.63;;;9.70;;
21769;SDS011;11046;49.558;8.674;2023-02-28T13:57:20;16.27;;;8.83;;
21769;SDS011;11046;49.558;8.674;2023-02-28T14:07:49;16.20;;;9.00;;
21769;SDS011;11046;49.558;8.674;2023-02-28T14:11:02;14.60;;;9.33;;
21769;SDS011;11046;49.558;8.674;2023-02-28T14:17:35;16.93;;;8.67;;
21769;SDS011;11046;49.558;8.674;2023-02-28T14:20:37;16.77;;;9.53;;
21769;SDS011;11046;49.558;8.674;2023-02-28T14:27:12;15.43;;;9.30;;
21769;SDS011;11046;49.558;8.674;2023-02-28T14:30:26;20.83;;;10.37;;
21769;SDS011;11046;49.558;8.674;2023-02-28T14:33:54;16.20;;;9.90;;
21769;SDS011;11046;49.558;8.674;2023-02-28T14:37:15;16.97;;;9.67;;
21769;SDS011;11046;49.558;8.674;2023-02-28T14:40:21;18.77;;;9.57;;
21769;SDS011;11046;49.558;8.674;2023-02-28T14:43:35;15.50;;;9.73;;
21769;SDS011;11046;49.558;8.674;2023-02-28T14:46:37;15.13;;;9.40;;
21769;SDS011;11046;49.558;8.674;2023-02-28T14:49:44;15.83;;;9.07;;
21769;SDS011;11046;49.558;8.674;2023-02-28T14:52:46;16.10;;;9.73;;
21769;SDS011;11046;49.558;8.674;2023-02-28T14:55:51;15.50;;;9.73;;
21769;SDS011;11046;49.558;8.674;2023-02-28T14:58:56;19.53;;;9.47;;
21769;SDS011;11046;49.558;8.674;2023-02-28T15:05:25;18.27;;;10.20;;
21769;SDS011;11046;49.558;8.674;2023-02-28T15:08:30;20.30;;;9.97;;
21769;SDS011;11046;49.558;8.674;2023-02-28T15:11:38;18.27;;;10.37;;
21769;SDS011;11046;49.558;8.674;2023-02-28T15:14:44;19.27;;;9.97;;
21769;SDS011;11046;49.558;8.674;2023-02-28T15:17:54;20.60;;;10.17;;
21769;SDS011;11046;49.558;8.674;2023-02-28T15:21:11;18.57;;;9.63;;
21769;SDS011;11046;49.558;8.674;2023-02-28T15:24:22;17.03;;;9.47;;
21769;SDS011;11046;49.558;8.674;2023-02-28T15:27:32;19.30;;;10.10;;
21769;SDS011;11046;49.558;8.674;2023-02-28T15:30:39;16.80;;;8.90;;
21769;SDS011;11046;49.558;8.674;2023-02-28T15:33:56;16.37;;;8.70;;
21769;SDS011;11046;49.558;8.674;2023-02-28T15:37:23;15.80;;;8.90;;
21769;SDS011;11046;49.558;8.674;2023-02-28T15:40:40;15.30;;;9.43;;
21769;SDS011;11046;49.558;8.674;2023-02-28T15:43:43;16.83;;;10.07;;
21769;SDS011;11046;49.558;8.674;2023-02-28T15:46:53;18.07;;;9.17;;
21769;SDS011;11046;49.558;8.674;2023-02-28T15:50:00;20.33;;;9.17;;
21769;SDS011;11046;49.558;8.674;2023-02-28T15:53:15;14.83;;;9.33;;
21769;SDS011;11046;49.558;8.674;2023-02-28T15:56:22;17.53;;;9.37;;
21769;SDS011;11046;49.558;8.674;2023-02-28T15:59:26;15.73;;;9.37;;
21769;SDS011;11046;49.558;8.674;2023-02-28T16:02:30;17.30;;;9.27;;
21769;SDS011;11046;49.558;8.674;2023-02-28T16:05:35;17.07;;;8.90;;
21769;SDS011;11046;49.558;8.674;2023-02-28T16:08:36;19.27;;;9.53;;
21769;SDS011;11046;49.558;8.674;2023-02-28T16:11:39;21.57;;;10.43;;
21769;SDS011;11046;49.558;8.674;2023-02-28T16:14:43;16.87;;;9.80;;
21769;SDS011;11046;49.558;8.674;2023-02-28T16:17:46;17.93;;;9.17;;
21769;SDS011;11046;49.558;8.674;2023-02-28T16:20:47;30.13;;;15.57;;
21769;SDS011;11046;49.558;8.674;2023-02-28T16:23:48;18.03;;;9.93;;
21769;SDS011;11046;49.558;8.674;2023-02-28T16:26:50;21.63;;;10.03;;
21769;SDS011;11046;49.558;8.674;2023-02-28T16:29:53;21.63;;;8.80;;
21769;SDS011;11046;49.558;8.674;2023-02-28T16:32:54;18.73;;;10.20;;
21769;SDS011;11046;49.558;8.674;2023-02-28T16:35:55;16.77;;;9.23;;
21769;SDS011;11046;49.558;8.674;2023-02-28T16:38:56;21.30;;;9.87;;
21769;SDS011;11046;49.558;8.674;2023-02-28T16:41:57;18.73;;;9.77;;
21769;SDS011;11046;49.558;8.674;2023-02-28T16:44:57;17.43;;;9.60;;
21769;SDS011;11046;49.558;8.674;2023-02-28T16:47:58;17.10;;;9.57;;
21769;SDS011;11046;49.558;8.674;2023-02-28T16:50:58;15.77;;;9.50;;
21769;SDS011;11046;49.558;8.674;2023-02-28T16:53:59;18.23;;;9.97;;
21769;SDS011;11046;49.558;8.674;2023-02-28T16:57:00;17.97;;;10.23;;
21769;SDS011;11046;49.558;8.674;2023-02-28T17:00:00;18.07;;;9.90;;
21769;SDS011;11046;49.558;8.674;2023-02-28T17:03:01;16.50;;;10.07;;
21769;SDS011;11046;49.558;8.674;2023-02-28T17:06:03;17.67;;;9.73;;
21769;SDS011;11046;49.558;8.674;2023-02-28T17:09:04;18.50;;;9.67;;
21769;SDS011;11046;49.558;8.674;2023-02-28T17:12:04;17.80;;;10.00;;
21769;SDS011;11046;49.558;8.674;2023-02-28T17:15:05;21.13;;;10.80;;
21769;SDS011;11046;49.558;8.674;2023-02-28T17:18:08;16.57;;;9.17;;
21769;SDS011;11046;49.558;8.674;2023-02-28T17:21:14;20.73;;;10.47;;
21769;SDS011;11046;49.558;8.674;2023-02-28T17:24:16;17.60;;;9.80;;
21769;SDS011;11046;49.558;8.674;2023-02-28T17:27:16;18.07;;;10.07;;
21769;SDS011;11046;49.558;8.674;2023-02-28T17:30:18;25.73;;;13.77;;
21769;SDS011;11046;49.558;8.674;2023-02-28T17:33:20;18.87;;;11.17;;
21769;SDS011;11046;49.558;8.674;2023-02-28T17:36:22;22.97;;;10.37;;
21769;SDS011;11046;49.558;8.674;2023-02-28T17:39:25;20.87;;;10.50;;
21769;SDS011;11046;49.558;8.674;2023-02-28T17:42:26;18.47;;;9.70;;
21769;SDS011;11046;49.558;8.674;2023-02-28T17:45:26;19.53;;;9.40;;
21769;SDS011;11046;49.558;8.674;2023-02-28T17:48:27;16.67;;;9.90;;
21769;SDS011;11046;49.558;8.674;2023-02-28T17:51:28;16.23;;;8.80;;
21769;SDS011;11046;49.558;8.674;2023-02-28T17:54:29;20.80;;;11.53;;
21769;SDS011;11046;49.558;8.674;2023-02-28T17:57:30;19.20;;;10.17;;
21769;SDS011;11046;49.558;8.674;2023-02-28T18:00:30;19.90;;;9.77;;
21769;SDS011;11046;49.558;8.674;2023-02-28T18:03:33;16.60;;;9.33;;
21769;SDS011;11046;49.558;8.674;2023-02-28T18:06:37;16.33;;;9.00;;
21769;SDS011;11046;49.558;8.674;2023-02-28T18:09:51;17.40;;;8.63;;
21769;SDS011;11046;49.558;8.674;2023-02-28T18:12:52;18.07;;;8.93;;
21769;SDS011;11046;49.558;8.674;2023-02-28T18:15:54;14.87;;;8.50;;
21769;SDS011;11046;49.558;8.674;2023-02-28T18:18:54;18.53;;;8.90;;
21769;SDS011;11046;49.558;8.674;2023-02-28T18:21:55;17.83;;;9.60;;
21769;SDS011;11046;49.558;8.674;2023-02-28T18:24:56;16.77;;;8.93;;
21769;SDS011;11046;49.558;8.674;2023-02-28T18:27:56;17.33;;;8.47;;
21769;SDS011;11046;49.558;8.674;2023-02-28T18:30:57;17.17;;;8.43;;
21769;SDS011;11046;49.558;8.674;2023-02-28T18:34:04;18.77;;;9.93;;
21769;SDS011;11046;49.558;8.674;2023-02-28T18:37:05;18.83;;;8.27;;
21769;SDS011;11046;49.558;8.674;2023-02-28T18:40:05;17.43;;;8.97;;
21769;SDS011;11046;49.558;8.674;2023-02-28T18:43:07;31.57;;;13.80;;
21769;SDS011;11046;49.558;8.674;2023-02-28T18:46:12;25.57;;;12.80;;
21769;SDS011;11046;49.558;8.674;2023-02-28T18:49:14;22.17;;;11.10;;
21769;SDS011;11046;49.558;8.674;2023-02-28T18:52:15;20.07;;;10.70;;
21769;SDS011;11046;49.558;8.674;2023-02-28T18:55:15;23.53;;;12.53;;
21769;SDS011;11046;49.558;8.674;2023-02-28T18:58:17;35.23;;;17.40;;
21769;SDS011;11046;49.558;8.674;2023-02-28T19:01:25;95.27;;;37.97;;
21769;SDS011;11046;49.558;8.674;2023-02-28T19:04:28;36.33;;;19.93;;
21769;SDS011;11046;49.558;8.674;2023-02-28T19:07:29;51.77;;;31.50;;
21769;SDS011;11046;49.558;8.674;2023-02-28T19:10:30;34.37;;;18.80;;
21769;SDS011;11046;49.558;8.674;2023-02-28T19:13:30;38.57;;;23.97;;
21769;SDS011;11046;49.558;8.674;2023-02-28T19:16:31;25.67;;;13.77;;
21769;SDS011;11046;49.558;8.674;2023-02-28T19:19:31;31.37;;;15.97;;
21769;SDS011;11046;49.558;8.674;2023-02-28T19:22:32;30.77;;;13.80;;
21769;SDS011;11046;49.558;8.674;2023-02-28T19:25:33;27.77;;;15.00;;
21769;SDS011;11046;49.558;8.674;2023-02-28T19:28:33;27.50;;;14.13;;
21769;SDS011;11046;49.558;8.674;2023-02-28T19:31:34;26.83;;;15.50;;
21769;SDS011;11046;49.558;8.674;2023-02-28T19:34:34;26.93;;;14.20;;
21769;SDS011;11046;49.558;8.674;2023-02-28T19:37:38;25.13;;;13.67;;
21769;SDS011;11046;49.558;8.674;2023-02-28T19:40:39;36.63;;;19.47;;
21769;SDS011;11046;49.558;8.674;2023-02-28T19:43:40;39.40;;;21.57;;
21769;SDS011;11046;49.558;8.674;2023-02-28T19:46:41;42.17;;;24.50;;
21769;SDS011;11046;49.558;8.674;2023-02-28T19:49:43;33.27;;;19.23;;
21769;SDS011;11046;49.558;8.674;2023-02-28T19:52:43;31.53;;;15.70;;
21769;SDS011;11046;49.558;8.674;2023-02-28T19:55:45;31.10;;;14.47;;
21769;SDS011;11046;49.558;8.674;2023-02-28T19:58:46;32.70;;;16.13;;
21769;SDS011;11046;49.558;8.674;2023-02-28T20:01:47;37.40;;;19.73;;
21769;SDS011;11046;49.558;8.674;2023-02-28T20:04:48;27.10;;;14.53;;